sensor_id;sensor_type;location;lat;lon;timestamp;pressure;altitude;pressure_sealevel;temperature;humidity
77017;BME280;65949;53.132;17.930;2023-02-01T00:01:05;99822.13;;;2.78;79.67
77017;BME280;65949;53.132;17.930;2023-02-01T00:03:32;99824.21;;;2.81;79.64
77017;BME280;65949;53.132;17.930;2023-02-01T00:05:59;99830.20;;;2.82;79.39
77017;BME280;65949;53.132;17.930;2023-02-01T00:08:26;99832.00;;;2.86;78.85
77017;BME280;65949;53.132;17.930;2023-02-01T00:11:08;99833.98;;;2.89;79.22
77017;BME280;65949;53.132;17.930;2023-02-01T00:13:38;99830.69;;;2.90;79.13
77017;BME280;65949;53.132;17.930;2023-02-01T00:16:05;99836.23;;;2.89;79.18
77017;BME280;65949;53.132;17.930;2023-02-01T00:18:32;99835.73;;;2.88;79.03
77017;BME280;65949;53.132;17.930;2023-02-01T00:21:00;99839.48;;;2.87;79.01
77017;BME280;65949;53.132;17.930;2023-02-01T00:23:27;99839.65;;;2.86;78.89
77017;BME280;65949;53.132;17.930;2023-02-01T00:25:54;99842.39;;;2.86;79.00
77017;BME280;65949;53.132;17.930;2023-02-01T00:28:20;99839.58;;;2.87;78.85
77017;BME280;65949;53.132;17.930;2023-02-01T00:30:55;99844.37;;;2.87;78.74
77017;BME280;65949;53.132;17.930;2023-02-01T00:33:22;99849.89;;;2.87;78.97
77017;BME280;65949;53.132;17.930;2023-02-01T00:35:49;99849.52;;;2.88;79.14
77017;BME280;65949;53.132;17.930;2023-02-01T00:38:16;99854.31;;;2.87;79.30
77017;BME280;65949;53.132;17.930;2023-02-01T00:40:42;99854.63;;;2.90;78.98
77017;BME280;65949;53.132;17.930;2023-02-01T00:43:09;99859.09;;;2.91;78.92
77017;BME280;65949;53.132;17.930;2023-02-01T00:45:36;99860.48;;;2.91;79.27
77017;BME280;65949;53.132;17.930;2023-02-01T00:48:02;99864.69;;;2.90;79.54
77017;BME280;65949;53.132;17.930;2023-02-01T00:50:29;99862.04;;;2.90;79.97
77017;BME280;65949;53.132;17.930;2023-02-01T00:52:56;99862.05;;;2.86;80.16
77017;BME280;65949;53.132;17.930;2023-02-01T00:55:23;99863.55;;;2.78;80.69
77017;BME280;65949;53.132;17.930;2023-02-01T00:57:49;99863.97;;;2.74;80.93
77017;BME280;65949;53.132;17.930;2023-02-01T01:00:17;99858.94;;;2.70;81.13
77017;BME280;65949;53.132;17.930;2023-02-01T01:02:43;99863.56;;;2.66;81.25
77017;BME280;65949;53.132;17.930;2023-02-01T01:05:10;99865.75;;;2.61;81.60
77017;BME280;65949;53.132;17.930;2023-02-01T01:07:37;99860.03;;;2.57;81.70
77017;BME280;65949;53.132;17.930;2023-02-01T01:10:04;99862.14;;;2.54;82.04
77017;BME280;65949;53.132;17.930;2023-02-01T01:12:32;99866.96;;;2.54;81.98
77017;BME280;65949;53.132;17.930;2023-02-01T01:14:59;99865.61;;;2.54;82.21
77017;BME280;65949;53.132;17.930;2023-02-01T01:17:25;99863.73;;;2.56;82.22
77017;BME280;65949;53.132;17.930;2023-02-01T01:19:52;99861.36;;;2.58;82.38
77017;BME280;65949;53.132;17.930;2023-02-01T01:22:19;99853.02;;;2.60;82.33
77017;BME280;65949;53.132;17.930;2023-02-01T01:24:45;99859.88;;;2.65;82.17
77017;BME280;65949;53.132;17.930;2023-02-01T01:27:12;99864.54;;;2.68;82.02
77017;BME280;65949;53.132;17.930;2023-02-01T01:29:39;99867.80;;;2.70;81.80
77017;BME280;65949;53.132;17.930;2023-02-01T01:32:05;99866.03;;;2.72;81.63
77017;BME280;65949;53.132;17.930;2023-02-01T01:34:32;99870.08;;;2.74;81.70
77017;BME280;65949;53.132;17.930;2023-02-01T01:36:59;99867.80;;;2.75;81.86
77017;BME280;65949;53.132;17.930;2023-02-01T01:39:25;99863.31;;;2.79;81.76
77017;BME280;65949;53.132;17.930;2023-02-01T01:41:52;99868.52;;;2.81;81.45
77017;BME280;65949;53.132;17.930;2023-02-01T01:44:59;99868.52;;;2.83;81.39
77017;BME280;65949;53.132;17.930;2023-02-01T01:47:39;99870.05;;;2.85;81.64
77017;BME280;65949;53.132;17.930;2023-02-01T01:50:12;99865.59;;;2.85;81.58
77017;BME280;65949;53.132;17.930;2023-02-01T01:52:41;99864.56;;;2.86;81.11
77017;BME280;65949;53.132;17.930;2023-02-01T01:55:11;99862.32;;;2.87;81.26
77017;BME280;65949;53.132;17.930;2023-02-01T01:57:41;99859.80;;;2.86;81.18
77017;BME280;65949;53.132;17.930;2023-02-01T02:00:12;99854.45;;;2.89;80.85
77017;BME280;65949;53.132;17.930;2023-02-01T02:02:46;99854.48;;;2.90;80.77
77017;BME280;65949;53.132;17.930;2023-02-01T02:05:15;99854.30;;;2.91;80.82
77017;BME280;65949;53.132;17.930;2023-02-01T02:07:46;99854.17;;;2.94;80.40
77017;BME280;65949;53.132;17.930;2023-02-01T02:10:15;99856.57;;;2.98;80.06
77017;BME280;65949;53.132;17.930;2023-02-01T02:12:46;99855.14;;;3.01;80.23
77017;BME280;65949;53.132;17.930;2023-02-01T02:15:15;99855.59;;;3.02;80.24
77017;BME280;65949;53.132;17.930;2023-02-01T02:26:27;99858.56;;;3.04;78.73
77017;BME280;65949;53.132;17.930;2023-02-01T02:34:46;99852.02;;;3.03;78.12
77017;BME280;65949;53.132;17.930;2023-02-01T02:37:41;99859.84;;;3.03;78.79
77017;BME280;65949;53.132;17.930;2023-02-01T02:40:32;99862.70;;;3.05;78.15
77017;BME280;65949;53.132;17.930;2023-02-01T02:43:22;99863.08;;;3.09;77.61
77017;BME280;65949;53.132;17.930;2023-02-01T02:46:22;99858.05;;;3.13;77.08
77017;BME280;65949;53.132;17.930;2023-02-01T02:51:50;99864.36;;;3.18;77.12
77017;BME280;65949;53.132;17.930;2023-02-01T02:54:41;99866.60;;;3.19;77.05
77017;BME280;65949;53.132;17.930;2023-02-01T02:57:24;99866.79;;;3.19;76.45
77017;BME280;65949;53.132;17.930;2023-02-01T03:00:15;99864.72;;;3.23;76.12
77017;BME280;65949;53.132;17.930;2023-02-01T03:03:02;99865.40;;;3.24;75.74
77017;BME280;65949;53.132;17.930;2023-02-01T03:05:49;99865.98;;;3.26;76.17
77017;BME280;65949;53.132;17.930;2023-02-01T03:08:24;99866.42;;;3.28;75.34
77017;BME280;65949;53.132;17.930;2023-02-01T03:11:05;99862.77;;;3.28;74.35
77017;BME280;65949;53.132;17.930;2023-02-01T03:13:47;99863.80;;;3.30;74.48
77017;BME280;65949;53.132;17.930;2023-02-01T03:16:28;99857.09;;;3.29;74.48
77017;BME280;65949;53.132;17.930;2023-02-01T03:22:25;99862.48;;;3.38;74.45
77017;BME280;65949;53.132;17.930;2023-02-01T03:24:54;99862.61;;;3.37;73.70
77017;BME280;65949;53.132;17.930;2023-02-01T03:27:24;99868.63;;;3.38;73.80
77017;BME280;65949;53.132;17.930;2023-02-01T03:30:11;99860.48;;;3.38;73.81
77017;BME280;65949;53.132;17.930;2023-02-01T03:32:48;99856.78;;;3.40;73.70
77017;BME280;65949;53.132;17.930;2023-02-01T03:35:50;99858.45;;;3.44;74.32
77017;BME280;65949;53.132;17.930;2023-02-01T03:38:35;99861.79;;;3.44;74.18
77017;BME280;65949;53.132;17.930;2023-02-01T03:41:17;99854.42;;;3.41;74.80
77017;BME280;65949;53.132;17.930;2023-02-01T03:43:53;99852.98;;;3.38;74.23
77017;BME280;65949;53.132;17.930;2023-02-01T03:46:39;99853.33;;;3.36;73.83
77017;BME280;65949;53.132;17.930;2023-02-01T03:49:11;99855.53;;;3.36;73.99
77017;BME280;65949;53.132;17.930;2023-02-01T03:51:41;99856.58;;;3.41;73.74
77017;BME280;65949;53.132;17.930;2023-02-01T03:54:12;99863.51;;;3.42;73.81
77017;BME280;65949;53.132;17.930;2023-02-01T03:56:43;99861.12;;;3.43;73.48
77017;BME280;65949;53.132;17.930;2023-02-01T03:59:12;99859.17;;;3.44;73.77
77017;BME280;65949;53.132;17.930;2023-02-01T04:01:39;99852.14;;;3.43;73.16
77017;BME280;65949;53.132;17.930;2023-02-01T04:04:07;99848.77;;;3.41;73.64
77017;BME280;65949;53.132;17.930;2023-02-01T04:06:34;99852.16;;;3.39;73.56
77017;BME280;65949;53.132;17.930;2023-02-01T04:09:03;99847.70;;;3.40;73.59
77017;BME280;65949;53.132;17.930;2023-02-01T04:11:29;99855.56;;;3.44;73.69
77017;BME280;65949;53.132;17.930;2023-02-01T04:13:56;99859.91;;;3.45;73.87
77017;BME280;65949;53.132;17.930;2023-02-01T04:16:22;99854.52;;;3.44;74.24
77017;BME280;65949;53.132;17.930;2023-02-01T04:18:49;99858.26;;;3.40;74.36
77017;BME280;65949;53.132;17.930;2023-02-01T04:21:16;99853.45;;;3.35;74.84
77017;BME280;65949;53.132;17.930;2023-02-01T04:23:43;99846.77;;;3.32;74.95
77017;BME280;65949;53.132;17.930;2023-02-01T04:26:09;99841.36;;;3.34;74.87
77017;BME280;65949;53.132;17.930;2023-02-01T04:28:36;99841.63;;;3.36;75.02
77017;BME280;65949;53.132;17.930;2023-02-01T04:31:03;99843.33;;;3.36;74.93
77017;BME280;65949;53.132;17.930;2023-02-01T04:33:30;99838.02;;;3.36;75.10
77017;BME280;65949;53.132;17.930;2023-02-01T04:35:57;99842.22;;;3.34;75.63
77017;BME280;65949;53.132;17.930;2023-02-01T04:38:23;99847.72;;;3.32;76.00
77017;BME280;65949;53.132;17.930;2023-02-01T04:40:50;99850.81;;;3.32;76.30
77017;BME280;65949;53.132;17.930;2023-02-01T04:43:17;99845.05;;;3.30;76.54
77017;BME280;65949;53.132;17.930;2023-02-01T04:45:50;99841.08;;;3.27;76.32
77017;BME280;65949;53.132;17.930;2023-02-01T04:48:18;99834.08;;;3.24;76.31
77017;BME280;65949;53.132;17.930;2023-02-01T04:50:46;99837.02;;;3.25;76.42
77017;BME280;65949;53.132;17.930;2023-02-01T04:53:14;99831.11;;;3.26;75.99
77017;BME280;65949;53.132;17.930;2023-02-01T04:55:42;99834.84;;;3.29;75.66
77017;BME280;65949;53.132;17.930;2023-02-01T04:58:09;99845.09;;;3.33;75.82
77017;BME280;65949;53.132;17.930;2023-02-01T05:00:37;99842.23;;;3.37;75.80
77017;BME280;65949;53.132;17.930;2023-02-01T05:03:04;99847.98;;;3.39;75.52
77017;BME280;65949;53.132;17.930;2023-02-01T05:05:31;99844.79;;;3.41;75.40
77017;BME280;65949;53.132;17.930;2023-02-01T05:07:58;99841.32;;;3.43;74.97
77017;BME280;65949;53.132;17.930;2023-02-01T05:10:25;99842.41;;;3.43;75.16
77017;BME280;65949;53.132;17.930;2023-02-01T05:12:51;99846.29;;;3.44;74.80
77017;BME280;65949;53.132;17.930;2023-02-01T05:15:36;99838.88;;;3.44;74.68
77017;BME280;65949;53.132;17.930;2023-02-01T05:18:04;99833.11;;;3.47;74.30
77017;BME280;65949;53.132;17.930;2023-02-01T05:20:30;99831.20;;;3.49;74.06
77017;BME280;65949;53.132;17.930;2023-02-01T05:22:57;99823.40;;;3.50;74.20
77017;BME280;65949;53.132;17.930;2023-02-01T05:25:24;99818.79;;;3.49;74.00
77017;BME280;65949;53.132;17.930;2023-02-01T05:27:51;99817.75;;;3.46;74.48
77017;BME280;65949;53.132;17.930;2023-02-01T05:30:17;99818.29;;;3.43;74.77
77017;BME280;65949;53.132;17.930;2023-02-01T05:32:44;99816.55;;;3.38;74.79
77017;BME280;65949;53.132;17.930;2023-02-01T05:35:11;99817.64;;;3.37;74.82
77017;BME280;65949;53.132;17.930;2023-02-01T05:37:37;99810.60;;;3.35;75.15
77017;BME280;65949;53.132;17.930;2023-02-01T05:40:04;99815.27;;;3.32;75.24
77017;BME280;65949;53.132;17.930;2023-02-01T05:42:31;99821.45;;;3.27;75.47
77017;BME280;65949;53.132;17.930;2023-02-01T05:44:58;99827.51;;;3.24;75.54
77017;BME280;65949;53.132;17.930;2023-02-01T05:47:24;99825.47;;;3.22;75.88
77017;BME280;65949;53.132;17.930;2023-02-01T05:49:51;99830.94;;;3.22;75.75
77017;BME280;65949;53.132;17.930;2023-02-01T05:52:18;99828.61;;;3.25;75.84
77017;BME280;65949;53.132;17.930;2023-02-01T05:54:46;99830.02;;;3.26;75.91
77017;BME280;65949;53.132;17.930;2023-02-01T05:57:13;99842.84;;;3.28;76.08
77017;BME280;65949;53.132;17.930;2023-02-01T05:59:40;99839.27;;;3.29;75.99
77017;BME280;65949;53.132;17.930;2023-02-01T06:02:08;99846.54;;;3.29;76.09
77017;BME280;65949;53.132;17.930;2023-02-01T06:04:36;99844.59;;;3.27;75.97
77017;BME280;65949;53.132;17.930;2023-02-01T06:07:03;99846.27;;;3.29;75.93
77017;BME280;65949;53.132;17.930;2023-02-01T06:09:30;99843.09;;;3.27;75.94
77017;BME280;65949;53.132;17.930;2023-02-01T06:11:56;99843.39;;;3.29;75.79
77017;BME280;65949;53.132;17.930;2023-02-01T06:14:24;99843.80;;;3.29;75.74
77017;BME280;65949;53.132;17.930;2023-02-01T06:16:50;99853.37;;;3.29;75.82
77017;BME280;65949;53.132;17.930;2023-02-01T06:19:17;99850.59;;;3.27;75.73
77017;BME280;65949;53.132;17.930;2023-02-01T06:21:44;99852.91;;;3.24;76.05
77017;BME280;65949;53.132;17.930;2023-02-01T06:24:11;99847.72;;;3.20;75.94
77017;BME280;65949;53.132;17.930;2023-02-01T06:26:37;99851.05;;;3.18;75.90
77017;BME280;65949;53.132;17.930;2023-02-01T06:29:07;99851.60;;;3.16;76.04
77017;BME280;65949;53.132;17.930;2023-02-01T06:31:35;99850.17;;;3.17;75.74
77017;BME280;65949;53.132;17.930;2023-02-01T06:34:02;99849.25;;;3.17;75.74
77017;BME280;65949;53.132;17.930;2023-02-01T06:36:29;99849.91;;;3.19;75.88
77017;BME280;65949;53.132;17.930;2023-02-01T06:38:56;99847.27;;;3.23;75.37
77017;BME280;65949;53.132;17.930;2023-02-01T06:41:23;99850.09;;;3.25;75.53
77017;BME280;65949;53.132;17.930;2023-02-01T06:43:49;99847.39;;;3.28;75.21
77017;BME280;65949;53.132;17.930;2023-02-01T06:46:16;99847.64;;;3.30;75.18
77017;BME280;65949;53.132;17.930;2023-02-01T06:48:43;99842.51;;;3.31;75.01
77017;BME280;65949;53.132;17.930;2023-02-01T06:51:24;99848.34;;;3.31;75.01
77017;BME280;65949;53.132;17.930;2023-02-01T06:53:51;99848.80;;;3.32;74.96
77017;BME280;65949;53.132;17.930;2023-02-01T06:56:18;99844.55;;;3.32;75.03
77017;BME280;65949;53.132;17.930;2023-02-01T06:58:45;99848.60;;;3.29;74.49
77017;BME280;65949;53.132;17.930;2023-02-01T07:01:12;99846.16;;;3.31;74.20
77017;BME280;65949;53.132;17.930;2023-02-01T07:03:40;99847.14;;;3.31;74.50
77017;BME280;65949;53.132;17.930;2023-02-01T07:06:07;99841.66;;;3.30;74.25
77017;BME280;65949;53.132;17.930;2023-02-01T07:08:37;99845.93;;;3.28;74.15
77017;BME280;65949;53.132;17.930;2023-02-01T07:11:05;99850.43;;;3.29;74.10
77017;BME280;65949;53.132;17.930;2023-02-01T07:13:32;99849.56;;;3.31;74.29
77017;BME280;65949;53.132;17.930;2023-02-01T07:16:04;99851.94;;;3.34;74.11
77017;BME280;65949;53.132;17.930;2023-02-01T07:18:32;99851.52;;;3.38;73.52
77017;BME280;65949;53.132;17.930;2023-02-01T07:20:59;99853.57;;;3.42;73.77
77017;BME280;65949;53.132;17.930;2023-02-01T07:23:27;99853.08;;;3.46;73.73
77017;BME280;65949;53.132;17.930;2023-02-01T07:25:55;99847.19;;;3.50;73.58
77017;BME280;65949;53.132;17.930;2023-02-01T07:28:24;99849.02;;;3.53;73.42
77017;BME280;65949;53.132;17.930;2023-02-01T07:30:51;99850.38;;;3.54;72.95
77017;BME280;65949;53.132;17.930;2023-02-01T07:33:20;99849.73;;;3.55;73.30
77017;BME280;65949;53.132;17.930;2023-02-01T07:35:48;99852.04;;;3.57;73.47
77017;BME280;65949;53.132;17.930;2023-02-01T07:38:16;99857.70;;;3.57;73.17
77017;BME280;65949;53.132;17.930;2023-02-01T07:40:43;99853.92;;;3.58;73.48
77017;BME280;65949;53.132;17.930;2023-02-01T07:43:10;99857.36;;;3.60;73.11
77017;BME280;65949;53.132;17.930;2023-02-01T07:45:37;99853.49;;;3.64;72.80
77017;BME280;65949;53.132;17.930;2023-02-01T07:48:04;99853.88;;;3.74;72.74
77017;BME280;65949;53.132;17.930;2023-02-01T07:50:31;99854.20;;;3.82;72.54
77017;BME280;65949;53.132;17.930;2023-02-01T07:52:59;99855.54;;;3.90;72.27
77017;BME280;65949;53.132;17.930;2023-02-01T07:55:27;99851.18;;;3.96;72.02
77017;BME280;65949;53.132;17.930;2023-02-01T07:57:57;99858.17;;;4.03;72.25
77017;BME280;65949;53.132;17.930;2023-02-01T08:00:25;99856.28;;;4.07;72.05
77017;BME280;65949;53.132;17.930;2023-02-01T08:03:11;99862.64;;;4.07;72.35
77017;BME280;65949;53.132;17.930;2023-02-01T08:05:37;99862.92;;;4.06;72.11
77017;BME280;65949;53.132;17.930;2023-02-01T08:08:05;99865.61;;;4.08;72.38
77017;BME280;65949;53.132;17.930;2023-02-01T08:10:32;99864.61;;;4.13;72.26
77017;BME280;65949;53.132;17.930;2023-02-01T08:13:02;99865.05;;;4.17;72.23
77017;BME280;65949;53.132;17.930;2023-02-01T08:15:29;99869.33;;;4.19;72.43
77017;BME280;65949;53.132;17.930;2023-02-01T08:17:56;99873.05;;;4.20;72.07
77017;BME280;65949;53.132;17.930;2023-02-01T08:20:23;99875.45;;;4.19;72.67
77017;BME280;65949;53.132;17.930;2023-02-01T08:22:53;99873.89;;;4.21;72.77
77017;BME280;65949;53.132;17.930;2023-02-01T08:25:19;99872.61;;;4.21;72.52
77017;BME280;65949;53.132;17.930;2023-02-01T08:27:46;99877.52;;;4.24;72.47
77017;BME280;65949;53.132;17.930;2023-02-01T08:30:13;99885.69;;;4.31;72.36
77017;BME280;65949;53.132;17.930;2023-02-01T08:32:40;99888.57;;;4.36;72.52
77017;BME280;65949;53.132;17.930;2023-02-01T08:35:07;99881.84;;;4.43;72.48
77017;BME280;65949;53.132;17.930;2023-02-01T08:37:34;99884.33;;;4.47;72.58
77017;BME280;65949;53.132;17.930;2023-02-01T08:40:03;99894.09;;;4.50;72.62
77017;BME280;65949;53.132;17.930;2023-02-01T08:42:30;99895.54;;;4.50;72.67
77017;BME280;65949;53.132;17.930;2023-02-01T08:45:16;99903.71;;;4.46;72.72
77017;BME280;65949;53.132;17.930;2023-02-01T08:47:44;99908.21;;;4.40;72.84
77017;BME280;65949;53.132;17.930;2023-02-01T08:50:11;99900.34;;;4.33;72.93
77017;BME280;65949;53.132;17.930;2023-02-01T08:52:38;99904.80;;;4.21;73.52
77017;BME280;65949;53.132;17.930;2023-02-01T08:55:06;99906.19;;;4.14;73.83
77017;BME280;65949;53.132;17.930;2023-02-01T08:57:33;99903.99;;;4.09;74.24
77017;BME280;65949;53.132;17.930;2023-02-01T09:00:01;99907.50;;;4.02;74.38
77017;BME280;65949;53.132;17.930;2023-02-01T09:02:28;99913.02;;;4.00;74.64
77017;BME280;65949;53.132;17.930;2023-02-01T09:04:56;99910.54;;;3.95;74.78
77017;BME280;65949;53.132;17.930;2023-02-01T09:07:23;99919.73;;;3.89;75.72
77017;BME280;65949;53.132;17.930;2023-02-01T09:09:50;99909.24;;;3.84;76.17
77017;BME280;65949;53.132;17.930;2023-02-01T09:12:16;99916.33;;;3.82;76.50
77017;BME280;65949;53.132;17.930;2023-02-01T09:14:43;99920.38;;;3.79;76.92
77017;BME280;65949;53.132;17.930;2023-02-01T09:17:10;99915.07;;;3.77;76.85
77017;BME280;65949;53.132;17.930;2023-02-01T09:19:37;99912.23;;;3.82;76.89
77017;BME280;65949;53.132;17.930;2023-02-01T09:22:04;99911.36;;;3.82;77.32
77017;BME280;65949;53.132;17.930;2023-02-01T09:24:31;99909.09;;;3.81;77.28
77017;BME280;65949;53.132;17.930;2023-02-01T09:26:58;99902.04;;;3.80;77.40
77017;BME280;65949;53.132;17.930;2023-02-01T09:29:25;99903.12;;;3.82;77.59
77017;BME280;65949;53.132;17.930;2023-02-01T09:31:51;99902.56;;;3.97;77.24
77017;BME280;65949;53.132;17.930;2023-02-01T09:34:18;99894.29;;;4.15;76.87
77017;BME280;65949;53.132;17.930;2023-02-01T09:36:45;99894.27;;;4.19;77.04
77017;BME280;65949;53.132;17.930;2023-02-01T09:39:12;99891.70;;;4.21;76.62
77017;BME280;65949;53.132;17.930;2023-02-01T09:46:33;99876.04;;;4.39;76.05
77017;BME280;65949;53.132;17.930;2023-02-01T09:49:05;99869.23;;;4.37;76.05
77017;BME280;65949;53.132;17.930;2023-02-01T09:51:45;99871.33;;;4.38;76.05
77017;BME280;65949;53.132;17.930;2023-02-01T09:54:18;99877.72;;;4.38;75.52
77017;BME280;65949;53.132;17.930;2023-02-01T09:57:03;99872.83;;;4.41;75.40
77017;BME280;65949;53.132;17.930;2023-02-01T10:00:03;99869.27;;;4.50;75.17
77017;BME280;65949;53.132;17.930;2023-02-01T10:02:39;99864.48;;;4.53;74.86
77017;BME280;65949;53.132;17.930;2023-02-01T10:05:13;99865.10;;;4.59;75.05
77017;BME280;65949;53.132;17.930;2023-02-01T10:10:38;99855.61;;;4.74;74.38
77017;BME280;65949;53.132;17.930;2023-02-01T10:13:31;99859.27;;;4.71;74.45
77017;BME280;65949;53.132;17.930;2023-02-01T10:21:45;99863.99;;;4.76;73.84
77017;BME280;65949;53.132;17.930;2023-02-01T10:26:47;99863.66;;;5.04;73.29
77017;BME280;65949;53.132;17.930;2023-02-01T10:29:24;99860.82;;;5.07;72.99
77017;BME280;65949;53.132;17.930;2023-02-01T10:31:53;99857.52;;;5.10;73.03
77017;BME280;65949;53.132;17.930;2023-02-01T10:36:53;99862.60;;;5.21;72.73
77017;BME280;65949;53.132;17.930;2023-02-01T10:39:22;99863.75;;;5.15;72.37
77017;BME280;65949;53.132;17.930;2023-02-01T10:41:49;99866.90;;;5.02;72.82
77017;BME280;65949;53.132;17.930;2023-02-01T10:44:20;99864.38;;;4.90;72.75
77017;BME280;65949;53.132;17.930;2023-02-01T10:46:51;99859.98;;;4.76;73.16
77017;BME280;65949;53.132;17.930;2023-02-01T10:49:24;99856.69;;;4.71;73.68
77017;BME280;65949;53.132;17.930;2023-02-01T10:51:59;99853.48;;;4.74;73.37
77017;BME280;65949;53.132;17.930;2023-02-01T10:54:37;99854.83;;;4.77;73.39
77017;BME280;65949;53.132;17.930;2023-02-01T10:57:20;99850.33;;;4.86;73.69
77017;BME280;65949;53.132;17.930;2023-02-01T10:59:48;99845.17;;;4.93;73.14
77017;BME280;65949;53.132;17.930;2023-02-01T11:02:27;99848.08;;;4.94;73.55
77017;BME280;65949;53.132;17.930;2023-02-01T11:05:07;99843.21;;;4.90;73.05
77017;BME280;65949;53.132;17.930;2023-02-01T11:07:39;99841.55;;;4.90;73.46
77017;BME280;65949;53.132;17.930;2023-02-01T11:10:33;99839.40;;;4.94;73.39
77017;BME280;65949;53.132;17.930;2023-02-01T11:13:04;99840.02;;;4.97;73.39
77017;BME280;65949;53.132;17.930;2023-02-01T11:15:31;99838.71;;;4.99;73.37
77017;BME280;65949;53.132;17.930;2023-02-01T11:18:15;99834.86;;;4.97;73.24
77017;BME280;65949;53.132;17.930;2023-02-01T11:20:45;99833.75;;;4.96;73.31
77017;BME280;65949;53.132;17.930;2023-02-01T11:23:17;99830.38;;;4.95;73.14
77017;BME280;65949;53.132;17.930;2023-02-01T11:25:54;99827.86;;;4.99;73.36
77017;BME280;65949;53.132;17.930;2023-02-01T11:28:29;99824.05;;;5.04;73.08
77017;BME280;65949;53.132;17.930;2023-02-01T11:31:00;99822.70;;;5.06;73.35
77017;BME280;65949;53.132;17.930;2023-02-01T11:33:34;99828.65;;;5.11;73.26
77017;BME280;65949;53.132;17.930;2023-02-01T11:36:17;99827.48;;;5.15;73.23
77017;BME280;65949;53.132;17.930;2023-02-01T11:38:54;99829.27;;;5.22;73.15
77017;BME280;65949;53.132;17.930;2023-02-01T11:41:33;99825.59;;;5.24;72.78
77017;BME280;65949;53.132;17.930;2023-02-01T11:44:01;99821.11;;;5.25;72.85
77017;BME280;65949;53.132;17.930;2023-02-01T11:46:42;99824.98;;;5.39;73.07
77017;BME280;65949;53.132;17.930;2023-02-01T11:49:23;99819.30;;;5.57;72.41
77017;BME280;65949;53.132;17.930;2023-02-01T11:52:13;99819.20;;;5.72;71.56
77017;BME280;65949;53.132;17.930;2023-02-01T12:13:58;99812.42;;;5.91;70.18
77017;BME280;65949;53.132;17.930;2023-02-01T12:19:43;99796.52;;;5.73;70.06
77017;BME280;65949;53.132;17.930;2023-02-01T12:22:34;99796.11;;;5.65;70.09
77017;BME280;65949;53.132;17.930;2023-02-01T12:28:34;99799.67;;;5.45;71.21
77017;BME280;65949;53.132;17.930;2023-02-01T12:39:29;99794.38;;;5.38;70.95
77017;BME280;65949;53.132;17.930;2023-02-01T12:47:42;99790.59;;;5.15;71.18
77017;BME280;65949;53.132;17.930;2023-02-01T12:50:21;99788.86;;;5.06;71.53
77017;BME280;65949;53.132;17.930;2023-02-01T12:52:54;99792.22;;;5.06;71.70
77017;BME280;65949;53.132;17.930;2023-02-01T12:58:20;99801.29;;;5.01;72.21
77017;BME280;65949;53.132;17.930;2023-02-01T13:00:55;99803.34;;;5.00;72.03
77017;BME280;65949;53.132;17.930;2023-02-01T13:03:41;99803.46;;;5.05;72.18
77017;BME280;65949;53.132;17.930;2023-02-01T13:11:37;99800.58;;;5.12;72.08
77017;BME280;65949;53.132;17.930;2023-02-01T13:14:20;99799.90;;;5.08;72.04
77017;BME280;65949;53.132;17.930;2023-02-01T13:16:59;99800.88;;;5.05;71.96
77017;BME280;65949;53.132;17.930;2023-02-01T13:19:28;99808.70;;;5.03;72.14
77017;BME280;65949;53.132;17.930;2023-02-01T13:22:03;99804.17;;;5.01;72.12
77017;BME280;65949;53.132;17.930;2023-02-01T13:24:45;99815.09;;;4.95;71.92
77017;BME280;65949;53.132;17.930;2023-02-01T13:27:15;99818.79;;;4.83;72.16
77017;BME280;65949;53.132;17.930;2023-02-01T13:29:53;99820.03;;;4.78;72.54
77017;BME280;65949;53.132;17.930;2023-02-01T13:32:38;99817.65;;;4.80;72.46
77017;BME280;65949;53.132;17.930;2023-02-01T13:41:30;99813.07;;;4.88;72.70
77017;BME280;65949;53.132;17.930;2023-02-01T13:44:24;99811.94;;;4.91;72.78
77017;BME280;65949;53.132;17.930;2023-02-01T13:46:46;99811.70;;;4.89;72.67
77017;BME280;65949;53.132;17.930;2023-02-01T13:49:26;99811.49;;;4.86;72.45
77017;BME280;65949;53.132;17.930;2023-02-01T13:51:56;99815.75;;;4.84;72.60
77017;BME280;65949;53.132;17.930;2023-02-01T13:54:33;99817.52;;;4.85;72.79
77017;BME280;65949;53.132;17.930;2023-02-01T13:57:01;99822.69;;;4.85;72.85
77017;BME280;65949;53.132;17.930;2023-02-01T14:16:12;99828.44;;;4.70;72.82
77017;BME280;65949;53.132;17.930;2023-02-01T14:23:47;99824.68;;;4.71;72.64
77017;BME280;65949;53.132;17.930;2023-02-01T14:26:19;99827.67;;;4.71;72.55
77017;BME280;65949;53.132;17.930;2023-02-01T14:29:00;99823.32;;;4.66;72.23
77017;BME280;65949;53.132;17.930;2023-02-01T14:31:35;99830.87;;;4.64;72.32
77017;BME280;65949;53.132;17.930;2023-02-01T14:42:39;99827.21;;;4.63;71.96
77017;BME280;65949;53.132;17.930;2023-02-01T14:50:39;99835.15;;;4.58;72.12
77017;BME280;65949;53.132;17.930;2023-02-01T14:58:47;99830.02;;;4.53;71.86
77017;BME280;65949;53.132;17.930;2023-02-01T15:09:37;99829.20;;;4.48;72.33
77017;BME280;65949;53.132;17.930;2023-02-01T15:12:16;99834.00;;;4.45;72.61
77017;BME280;65949;53.132;17.930;2023-02-01T15:15:02;99836.45;;;4.44;73.10
77017;BME280;65949;53.132;17.930;2023-02-01T15:17:31;99834.21;;;4.43;73.07
77017;BME280;65949;53.132;17.930;2023-02-01T15:20:22;99834.66;;;4.42;73.50
77017;BME280;65949;53.132;17.930;2023-02-01T15:23:00;99838.84;;;4.40;73.65
77017;BME280;65949;53.132;17.930;2023-02-01T15:25:36;99842.13;;;4.38;73.52
77017;BME280;65949;53.132;17.930;2023-02-01T15:28:04;99839.55;;;4.36;73.74
77017;BME280;65949;53.132;17.930;2023-02-01T15:30:34;99841.85;;;4.35;73.97
77017;BME280;65949;53.132;17.930;2023-02-01T15:33:19;99842.67;;;4.32;73.90
77017;BME280;65949;53.132;17.930;2023-02-01T15:35:52;99842.35;;;4.22;74.18
77017;BME280;65949;53.132;17.930;2023-02-01T15:43:29;99842.88;;;4.01;74.49
77017;BME280;65949;53.132;17.930;2023-02-01T15:46:01;99841.27;;;3.96;74.91
77017;BME280;65949;53.132;17.930;2023-02-01T15:48:41;99845.70;;;3.90;75.06
77017;BME280;65949;53.132;17.930;2023-02-01T15:51:18;99848.59;;;3.88;75.24